EJU351 EGGD-LGSK
Flight info
| Callsign | EJU351 |
|---|---|
| Flight time | 3h 27m |
| Altitude | 35000 |
| Route | YORQI DCT NUCHU L607 BIG L15 MOTOX DCT RUCAC DCT LESDO DCT ETINO DCT LASAT DCT DEVDI DCT RIPUS DCT RESIA DCT NIKOL DCT AIOSA DCT PAPIZ DCT DIMIS UL604 YNN UY121 AGH T6 EVIKO |
| Aircraft | A320/M-SDE3FGHIRWY/LB1 |
Departure
| Time | 2026-04-24 09:17 |
|---|---|
| Airport | Bristol Airport (EGGD) |
Arrival
| Time | 2026-04-24 12:44 |
|---|---|
| Airport | Skiathos Island National Airport (LGSK) |
| Time | Latitude | Longitude | Altitude | Speed | Heading |
|---|---|---|---|---|---|
| 2026-04-24 08:30 | 51.38571 | -2.70706 | 607 ft | 0 kts | 268° |
| 2026-04-24 08:59 | 51.38572 | -2.70696 | 607 ft | 4 kts | 265° |
| 2026-04-24 09:00 | 51.38578 | -2.70657 | 615 ft | 4 kts | 227° |
| 2026-04-24 09:00 | 51.38597 | -2.70641 | 612 ft | 2 kts | 177° |
| 2026-04-24 09:00 | 51.38598 | -2.70641 | 604 ft | 2 kts | 176° |
| 2026-04-24 09:04 | 51.38596 | -2.70641 | 612 ft | 1 kts | 176° |
| 2026-04-24 09:04 | 51.38591 | -2.70640 | 613 ft | 0 kts | 176° |
| 2026-04-24 09:06 | 51.38589 | -2.70640 | 613 ft | 1 kts | 176° |
| 2026-04-24 09:07 | 51.38572 | -2.70639 | 608 ft | 4 kts | 177° |
| 2026-04-24 09:07 | 51.38540 | -2.70636 | 607 ft | 3 kts | 176° |
| 2026-04-24 09:07 | 51.38495 | -2.70637 | 609 ft | 8 kts | 195° |
| 2026-04-24 09:08 | 51.38473 | -2.70691 | 615 ft | 4 kts | 261° |
| 2026-04-24 09:08 | 51.38469 | -2.70779 | 611 ft | 11 kts | 265° |
| 2026-04-24 09:08 | 51.38465 | -2.70889 | 613 ft | 8 kts | 266° |
| 2026-04-24 09:08 | 51.38462 | -2.70955 | 614 ft | 4 kts | 266° |
| 2026-04-24 09:09 | 51.38462 | -2.70977 | 614 ft | 0 kts | 266° |
| 2026-04-24 09:09 | 51.38461 | -2.70996 | 614 ft | 4 kts | 266° |
| 2026-04-24 09:09 | 51.38459 | -2.71046 | 622 ft | 3 kts | 266° |
| 2026-04-24 09:09 | 51.38458 | -2.71066 | 616 ft | 1 kts | 266° |
| 2026-04-24 09:10 | 51.38457 | -2.71099 | 616 ft | 5 kts | 266° |
| 2026-04-24 09:10 | 51.38455 | -2.71130 | 617 ft | 1 kts | 266° |
| 2026-04-24 09:10 | 51.38455 | -2.71136 | 617 ft | 1 kts | 266° |
| 2026-04-24 09:10 | 51.38454 | -2.71176 | 618 ft | 6 kts | 266° |
| 2026-04-24 09:11 | 51.38451 | -2.71261 | 618 ft | 9 kts | 267° |
| 2026-04-24 09:11 | 51.38446 | -2.71402 | 614 ft | 17 kts | 266° |
| 2026-04-24 09:11 | 51.38437 | -2.71614 | 618 ft | 20 kts | 265° |
| 2026-04-24 09:11 | 51.38429 | -2.71828 | 605 ft | 19 kts | 267° |
| 2026-04-24 09:12 | 51.38430 | -2.72021 | 606 ft | 16 kts | 268° |
| 2026-04-24 09:12 | 51.38425 | -2.72167 | 619 ft | 11 kts | 266° |
| 2026-04-24 09:12 | 51.38421 | -2.72264 | 612 ft | 7 kts | 266° |
| 2026-04-24 09:12 | 51.38419 | -2.72315 | 613 ft | 3 kts | 267° |
| 2026-04-24 09:13 | 51.38417 | -2.72381 | 614 ft | 11 kts | 267° |
| 2026-04-24 09:13 | 51.38410 | -2.72561 | 626 ft | 20 kts | 265° |
| 2026-04-24 09:13 | 51.38402 | -2.72772 | 615 ft | 18 kts | 265° |
| 2026-04-24 09:13 | 51.38394 | -2.72960 | 618 ft | 16 kts | 266° |
| 2026-04-24 09:14 | 51.38388 | -2.73127 | 615 ft | 14 kts | 266° |
| 2026-04-24 09:14 | 51.38376 | -2.73267 | 627 ft | 12 kts | 246° |
| 2026-04-24 09:14 | 51.38324 | -2.73338 | 625 ft | 8 kts | 197° |
| 2026-04-24 09:14 | 51.38304 | -2.73342 | 616 ft | 1 kts | 179° |
| 2026-04-24 09:15 | 51.38232 | -2.73322 | 633 ft | 15 kts | 153° |
| 2026-04-24 09:15 | 51.38215 | -2.73257 | 627 ft | 0 kts | 87° |
| 2026-04-24 09:15 | 51.38215 | -2.73256 | 627 ft | 0 kts | 87° |
| 2026-04-24 09:16 | 51.38215 | -2.73251 | 629 ft | 1 kts | 87° |
| 2026-04-24 09:16 | 51.38219 | -2.73143 | 627 ft | 36 kts | 87° |
| 2026-04-24 09:16 | 51.38252 | -2.72302 | 635 ft | 113 kts | 86° |
| 2026-04-24 09:17 | 51.38321 | -2.70709 | 720 ft | 163 kts | 85° |
| 2026-04-24 09:17 | 51.38393 | -2.68961 | 1663 ft | 153 kts | 88° |
| 2026-04-24 09:17 | 51.38466 | -2.67243 | 2449 ft | 153 kts | 88° |
| 2026-04-24 09:17 | 51.38552 | -2.65566 | 3081 ft | 152 kts | 90° |
| 2026-04-24 09:18 | 51.38598 | -2.63781 | 3385 ft | 172 kts | 90° |
| 2026-04-24 09:18 | 51.38640 | -2.61753 | 3638 ft | 194 kts | 90° |
| 2026-04-24 09:18 | 51.38689 | -2.59472 | 3858 ft | 217 kts | 90° |
| 2026-04-24 09:18 | 51.38831 | -2.56935 | 4168 ft | 243 kts | 75° |
| 2026-04-24 09:19 | 51.39794 | -2.54633 | 4762 ft | 262 kts | 41° |
| 2026-04-24 09:19 | 51.41365 | -2.53074 | 5551 ft | 268 kts | 33° |
| 2026-04-24 09:19 | 51.43004 | -2.51593 | 5898 ft | 271 kts | 33° |
| 2026-04-24 09:19 | 51.44618 | -2.50032 | 6085 ft | 272 kts | 44° |
| 2026-04-24 09:20 | 51.45809 | -2.47736 | 6909 ft | 266 kts | 65° |
| 2026-04-24 09:20 | 51.46353 | -2.43985 | 7906 ft | 264 kts | 93° |
| 2026-04-24 09:20 | 51.46320 | -2.41993 | 8420 ft | 265 kts | 93° |
| 2026-04-24 09:20 | 51.46263 | -2.39025 | 9156 ft | 268 kts | 93° |
| 2026-04-24 09:21 | 51.46203 | -2.36019 | 9900 ft | 271 kts | 93° |
| 2026-04-24 09:21 | 51.46145 | -2.33006 | 10563 ft | 277 kts | 93° |
| 2026-04-24 09:21 | 51.46081 | -2.29788 | 10759 ft | 300 kts | 93° |
| 2026-04-24 09:21 | 51.46008 | -2.26323 | 11000 ft | 319 kts | 93° |
| 2026-04-24 09:22 | 51.45933 | -2.22730 | 11542 ft | 326 kts | 93° |
| 2026-04-24 09:22 | 51.45860 | -2.19072 | 12170 ft | 330 kts | 93° |
| 2026-04-24 09:22 | 51.45787 | -2.15368 | 12818 ft | 334 kts | 93° |
| 2026-04-24 09:22 | 51.45712 | -2.11619 | 13443 ft | 338 kts | 93° |
| 2026-04-24 09:23 | 51.45633 | -2.07829 | 14065 ft | 342 kts | 93° |
| 2026-04-24 09:23 | 51.45551 | -2.03997 | 14606 ft | 346 kts | 94° |
| 2026-04-24 09:23 | 51.45466 | -2.00123 | 15151 ft | 349 kts | 94° |
| 2026-04-24 09:23 | 51.45380 | -1.96212 | 15703 ft | 353 kts | 94° |
| 2026-04-24 09:24 | 51.45292 | -1.92263 | 16242 ft | 356 kts | 94° |
| 2026-04-24 09:24 | 51.45204 | -1.88271 | 16744 ft | 360 kts | 95° |
| 2026-04-24 09:24 | 51.45112 | -1.84233 | 17265 ft | 364 kts | 95° |
| 2026-04-24 09:24 | 51.45016 | -1.80155 | 17788 ft | 368 kts | 95° |
| 2026-04-24 09:25 | 51.44917 | -1.76040 | 18300 ft | 371 kts | 96° |
| 2026-04-24 09:25 | 51.44817 | -1.71886 | 18791 ft | 375 kts | 96° |
| 2026-04-24 09:25 | 51.44713 | -1.67695 | 19234 ft | 378 kts | 96° |
| 2026-04-24 09:25 | 51.44607 | -1.63467 | 19680 ft | 381 kts | 96° |
| 2026-04-24 09:26 | 51.44497 | -1.59204 | 20122 ft | 384 kts | 96° |
| 2026-04-24 09:26 | 51.44383 | -1.54906 | 20564 ft | 387 kts | 96° |
| 2026-04-24 09:26 | 51.44269 | -1.50573 | 20978 ft | 391 kts | 96° |
| 2026-04-24 09:26 | 51.43971 | -1.46249 | 21403 ft | 390 kts | 105° |
| 2026-04-24 09:27 | 51.43389 | -1.41988 | 21827 ft | 393 kts | 106° |
| 2026-04-24 09:27 | 51.42799 | -1.37704 | 22257 ft | 395 kts | 106° |
| 2026-04-24 09:27 | 51.42203 | -1.33396 | 22678 ft | 397 kts | 106° |
| 2026-04-24 09:27 | 51.41600 | -1.29061 | 23092 ft | 400 kts | 106° |
| 2026-04-24 09:28 | 51.40987 | -1.24690 | 23499 ft | 403 kts | 106° |
| 2026-04-24 09:28 | 51.40378 | -1.20370 | 23895 ft | 405 kts | 106° |
| 2026-04-24 09:28 | 51.39766 | -1.15938 | 24219 ft | 409 kts | 104° |
| 2026-04-24 09:28 | 51.39438 | -1.11379 | 24503 ft | 415 kts | 98° |
| 2026-04-24 09:29 | 51.39213 | -1.06752 | 24784 ft | 419 kts | 97° |
| 2026-04-24 09:29 | 51.38980 | -1.02087 | 25059 ft | 422 kts | 97° |
| 2026-04-24 09:29 | 51.38740 | -0.97385 | 25333 ft | 425 kts | 97° |
| 2026-04-24 09:29 | 51.38496 | -0.92648 | 25593 ft | 428 kts | 97° |
| 2026-04-24 09:30 | 51.38246 | -0.87892 | 25873 ft | 431 kts | 97° |
| 2026-04-24 09:30 | 51.37989 | -0.83091 | 26141 ft | 434 kts | 97° |
| 2026-04-24 09:30 | 51.37729 | -0.78245 | 26411 ft | 438 kts | 97° |
| 2026-04-24 09:30 | 51.37469 | -0.73375 | 26679 ft | 441 kts | 97° |
| 2026-04-24 09:31 | 51.37207 | -0.68471 | 26941 ft | 444 kts | 97° |
| 2026-04-24 09:31 | 51.36944 | -0.63533 | 27201 ft | 447 kts | 97° |
| 2026-04-24 09:31 | 51.36676 | -0.58565 | 27480 ft | 449 kts | 97° |
| 2026-04-24 09:31 | 51.36401 | -0.53578 | 27785 ft | 451 kts | 97° |
| 2026-04-24 09:32 | 51.36122 | -0.48567 | 28105 ft | 452 kts | 97° |
| 2026-04-24 09:32 | 51.35840 | -0.43560 | 28422 ft | 454 kts | 97° |
| 2026-04-24 09:32 | 51.35553 | -0.38517 | 28747 ft | 455 kts | 97° |
| 2026-04-24 09:32 | 51.35261 | -0.33473 | 29075 ft | 456 kts | 97° |
| 2026-04-24 09:33 | 51.34970 | -0.28411 | 29355 ft | 458 kts | 96° |
| 2026-04-24 09:33 | 51.34676 | -0.23316 | 29576 ft | 462 kts | 96° |
| 2026-04-24 09:33 | 51.34379 | -0.18173 | 29799 ft | 465 kts | 96° |
| 2026-04-24 09:33 | 51.34083 | -0.13074 | 30025 ft | 468 kts | 96° |
| 2026-04-24 09:34 | 51.33773 | -0.07873 | 30250 ft | 471 kts | 96° |
| 2026-04-24 09:34 | 51.33458 | -0.02641 | 30456 ft | 474 kts | 96° |
| 2026-04-24 09:34 | 51.32972 | 0.02578 | 30601 ft | 476 kts | 104° |
| 2026-04-24 09:34 | 51.32036 | 0.07658 | 30707 ft | 477 kts | 113° |
| 2026-04-24 09:35 | 51.30773 | 0.12652 | 30855 ft | 480 kts | 114° |
| 2026-04-24 09:35 | 51.29527 | 0.17531 | 30987 ft | 483 kts | 114° |
| 2026-04-24 09:35 | 51.28254 | 0.22524 | 31182 ft | 485 kts | 114° |
| 2026-04-24 09:35 | 51.26985 | 0.27510 | 31434 ft | 485 kts | 114° |
| 2026-04-24 09:36 | 51.25718 | 0.32493 | 31703 ft | 484 kts | 114° |
| 2026-04-24 09:36 | 51.24449 | 0.37465 | 31984 ft | 483 kts | 114° |
| 2026-04-24 09:36 | 51.23178 | 0.42425 | 32269 ft | 482 kts | 114° |
| 2026-04-24 09:36 | 51.21906 | 0.47373 | 32571 ft | 482 kts | 114° |
| 2026-04-24 09:37 | 51.20634 | 0.52303 | 32882 ft | 479 kts | 114° |
| 2026-04-24 09:37 | 51.19367 | 0.57208 | 33193 ft | 478 kts | 114° |
| 2026-04-24 09:37 | 51.18101 | 0.62097 | 33493 ft | 477 kts | 115° |
| 2026-04-24 09:37 | 51.16834 | 0.66973 | 33771 ft | 476 kts | 115° |
| 2026-04-24 09:38 | 51.15567 | 0.71839 | 34037 ft | 475 kts | 115° |
| 2026-04-24 09:38 | 51.14302 | 0.76698 | 34295 ft | 475 kts | 115° |
| 2026-04-24 09:38 | 51.13037 | 0.81548 | 34549 ft | 474 kts | 115° |
| 2026-04-24 09:38 | 51.11773 | 0.86386 | 34795 ft | 473 kts | 115° |
| 2026-04-24 09:39 | 51.10511 | 0.91201 | 35034 ft | 472 kts | 115° |
| 2026-04-24 09:39 | 51.09245 | 0.96025 | 35239 ft | 471 kts | 115° |
| 2026-04-24 09:39 | 51.07981 | 1.00821 | 35343 ft | 469 kts | 115° |
| 2026-04-24 09:39 | 51.06718 | 1.05602 | 35359 ft | 468 kts | 115° |
| 2026-04-24 09:40 | 51.04191 | 1.15135 | 35358 ft | 468 kts | 115° |
| 2026-04-24 09:40 | 51.01658 | 1.24653 | 35362 ft | 468 kts | 115° |
| 2026-04-24 09:41 | 50.99122 | 1.34146 | 35359 ft | 467 kts | 115° |
| 2026-04-24 09:41 | 50.96579 | 1.43639 | 35358 ft | 467 kts | 116° |
| 2026-04-24 09:42 | 50.94047 | 1.53042 | 35358 ft | 466 kts | 116° |
| 2026-04-24 09:42 | 50.91493 | 1.62478 | 35359 ft | 465 kts | 116° |
| 2026-04-24 09:43 | 50.88796 | 1.71772 | 35355 ft | 462 kts | 124° |
| 2026-04-24 09:43 | 50.84783 | 1.79531 | 35331 ft | 454 kts | 139° |
| 2026-04-24 09:44 | 50.80195 | 1.86419 | 35337 ft | 454 kts | 139° |
| 2026-04-24 09:44 | 50.75630 | 1.93300 | 35349 ft | 453 kts | 139° |
| 2026-04-24 09:45 | 50.71063 | 2.00166 | 35356 ft | 452 kts | 139° |
| 2026-04-24 09:45 | 50.66506 | 2.06996 | 35349 ft | 452 kts | 139° |
| 2026-04-24 09:46 | 50.61948 | 2.13802 | 35327 ft | 451 kts | 139° |
| 2026-04-24 09:46 | 50.57392 | 2.20587 | 35331 ft | 451 kts | 139° |
| 2026-04-24 09:47 | 50.52834 | 2.27348 | 35329 ft | 450 kts | 139° |
| 2026-04-24 09:47 | 50.48284 | 2.34082 | 35505 ft | 448 kts | 139° |
| 2026-04-24 09:48 | 50.46018 | 2.37431 | 35848 ft | 445 kts | 139° |
| 2026-04-24 09:48 | 50.43769 | 2.40749 | 36103 ft | 443 kts | 139° |
| 2026-04-24 09:48 | 50.41528 | 2.44056 | 36313 ft | 442 kts | 140° |
| 2026-04-24 09:48 | 50.39295 | 2.47347 | 36494 ft | 441 kts | 140° |
| 2026-04-24 09:49 | 50.37062 | 2.50632 | 36726 ft | 439 kts | 140° |
| 2026-04-24 09:49 | 50.34835 | 2.53898 | 36934 ft | 438 kts | 140° |
| 2026-04-24 09:49 | 50.32640 | 2.57108 | 37115 ft | 437 kts | 140° |
| 2026-04-24 09:49 | 50.30423 | 2.60344 | 37305 ft | 434 kts | 140° |
| 2026-04-24 09:50 | 50.26031 | 2.66757 | 37323 ft | 431 kts | 140° |
| 2026-04-24 09:50 | 50.21662 | 2.73127 | 37312 ft | 430 kts | 140° |
| 2026-04-24 09:51 | 50.18023 | 2.78413 | 37315 ft | 427 kts | 141° |
| 2026-04-24 09:51 | 50.13662 | 2.84731 | 37315 ft | 424 kts | 140° |
| 2026-04-24 09:52 | 50.09330 | 2.90978 | 37318 ft | 424 kts | 140° |
| 2026-04-24 09:52 | 50.05031 | 2.97180 | 37315 ft | 424 kts | 140° |
| 2026-04-24 09:53 | 50.00708 | 3.03423 | 37323 ft | 424 kts | 140° |
| 2026-04-24 09:53 | 49.96380 | 3.09643 | 37309 ft | 424 kts | 141° |
| 2026-04-24 09:54 | 49.92047 | 3.15839 | 37300 ft | 424 kts | 140° |
| 2026-04-24 09:54 | 49.87712 | 3.22040 | 37319 ft | 423 kts | 140° |
| 2026-04-24 09:55 | 49.83371 | 3.28191 | 37317 ft | 423 kts | 140° |
| 2026-04-24 09:55 | 49.79307 | 3.34760 | 37317 ft | 425 kts | 131° |
| 2026-04-24 09:56 | 49.75643 | 3.41949 | 37314 ft | 425 kts | 131° |
| 2026-04-24 09:56 | 49.71946 | 3.49103 | 37303 ft | 425 kts | 132° |
| 2026-04-24 09:57 | 49.68245 | 3.56229 | 37307 ft | 426 kts | 131° |
| 2026-04-24 09:57 | 49.64546 | 3.63361 | 37297 ft | 425 kts | 131° |
| 2026-04-24 09:58 | 49.60855 | 3.70490 | 37300 ft | 425 kts | 131° |
| 2026-04-24 09:58 | 49.57182 | 3.77553 | 37289 ft | 426 kts | 132° |
| 2026-04-24 09:59 | 49.53427 | 3.84720 | 37285 ft | 433 kts | 132° |
| 2026-04-24 09:59 | 49.49633 | 3.91966 | 37285 ft | 435 kts | 132° |
| 2026-04-24 10:00 | 49.45830 | 3.99232 | 37285 ft | 436 kts | 132° |
| 2026-04-24 10:00 | 49.42027 | 4.06467 | 37283 ft | 435 kts | 132° |
| 2026-04-24 10:01 | 49.38213 | 4.13673 | 37282 ft | 435 kts | 132° |
| 2026-04-24 10:01 | 49.34399 | 4.20874 | 37282 ft | 435 kts | 132° |
| 2026-04-24 10:02 | 49.30584 | 4.28068 | 37279 ft | 435 kts | 132° |
| 2026-04-24 10:02 | 49.26760 | 4.35242 | 37279 ft | 435 kts | 132° |
| 2026-04-24 10:03 | 49.22932 | 4.42407 | 37280 ft | 435 kts | 132° |
| 2026-04-24 10:03 | 49.19107 | 4.49564 | 37278 ft | 434 kts | 131° |
| 2026-04-24 10:04 | 49.15282 | 4.56704 | 37280 ft | 434 kts | 131° |
| 2026-04-24 10:04 | 49.11474 | 4.63784 | 37278 ft | 434 kts | 132° |
| 2026-04-24 10:05 | 49.07610 | 4.70926 | 37277 ft | 433 kts | 132° |
| 2026-04-24 10:05 | 49.03771 | 4.78013 | 37271 ft | 433 kts | 132° |
| 2026-04-24 10:06 | 48.98036 | 4.88580 | 37266 ft | 433 kts | 132° |
| 2026-04-24 10:07 | 48.94189 | 4.95644 | 37266 ft | 433 kts | 132° |
| 2026-04-24 10:07 | 48.90349 | 5.02671 | 37277 ft | 431 kts | 132° |
| 2026-04-24 10:08 | 48.86822 | 5.10031 | 37270 ft | 431 kts | 126° |
| 2026-04-24 10:08 | 48.83520 | 5.17631 | 37269 ft | 431 kts | 126° |
| 2026-04-24 10:09 | 48.80210 | 5.25211 | 37254 ft | 430 kts | 126° |
| 2026-04-24 10:09 | 48.76902 | 5.32768 | 37253 ft | 430 kts | 126° |
| 2026-04-24 10:10 | 48.73589 | 5.40312 | 37256 ft | 430 kts | 126° |
| 2026-04-24 10:10 | 48.70269 | 5.47839 | 37246 ft | 430 kts | 126° |
| 2026-04-24 10:11 | 48.66951 | 5.55359 | 37243 ft | 430 kts | 126° |
| 2026-04-24 10:11 | 48.63648 | 5.62822 | 37243 ft | 430 kts | 126° |
| 2026-04-24 10:12 | 48.60316 | 5.70323 | 37236 ft | 430 kts | 126° |
| 2026-04-24 10:12 | 48.56972 | 5.77829 | 37240 ft | 430 kts | 126° |
| 2026-04-24 10:13 | 48.53624 | 5.85323 | 37243 ft | 431 kts | 126° |
| 2026-04-24 10:13 | 48.50269 | 5.92809 | 37223 ft | 431 kts | 126° |
| 2026-04-24 10:14 | 48.46913 | 6.00277 | 37231 ft | 430 kts | 126° |
| 2026-04-24 10:14 | 48.43550 | 6.07750 | 37224 ft | 430 kts | 126° |
| 2026-04-24 10:15 | 48.40180 | 6.15212 | 37219 ft | 431 kts | 126° |
| 2026-04-24 10:15 | 48.36830 | 6.22612 | 37225 ft | 431 kts | 126° |
| 2026-04-24 10:16 | 48.33452 | 6.30053 | 37226 ft | 431 kts | 126° |
| 2026-04-24 10:16 | 48.30069 | 6.37485 | 37224 ft | 431 kts | 126° |
| 2026-04-24 10:17 | 48.26678 | 6.44906 | 37223 ft | 431 kts | 126° |
| 2026-04-24 10:17 | 48.23283 | 6.52322 | 37221 ft | 431 kts | 126° |
| 2026-04-24 10:18 | 48.19888 | 6.59733 | 37216 ft | 431 kts | 126° |
| 2026-04-24 10:18 | 48.16486 | 6.67118 | 37219 ft | 431 kts | 126° |
| 2026-04-24 10:19 | 48.13045 | 6.74463 | 37217 ft | 431 kts | 127° |
| 2026-04-24 10:19 | 48.09532 | 6.81721 | 37217 ft | 431 kts | 128° |
| 2026-04-24 10:20 | 48.06005 | 6.88963 | 37216 ft | 431 kts | 127° |
| 2026-04-24 10:20 | 48.02489 | 6.96221 | 37211 ft | 431 kts | 127° |
| 2026-04-24 10:21 | 47.99004 | 7.03440 | 37221 ft | 431 kts | 127° |
| 2026-04-24 10:21 | 47.95493 | 7.10697 | 37225 ft | 431 kts | 127° |
| 2026-04-24 10:22 | 47.91972 | 7.17941 | 37231 ft | 431 kts | 127° |
| 2026-04-24 10:22 | 47.88453 | 7.25156 | 37230 ft | 431 kts | 127° |
| 2026-04-24 10:23 | 47.84919 | 7.32367 | 37229 ft | 431 kts | 127° |
| 2026-04-24 10:23 | 47.81379 | 7.39569 | 37229 ft | 431 kts | 127° |
| 2026-04-24 10:24 | 47.77828 | 7.46771 | 37227 ft | 431 kts | 127° |
| 2026-04-24 10:24 | 47.74291 | 7.53955 | 37227 ft | 431 kts | 127° |
| 2026-04-24 10:25 | 47.70742 | 7.61141 | 37230 ft | 431 kts | 126° |
| 2026-04-24 10:25 | 47.67211 | 7.68254 | 37228 ft | 431 kts | 126° |
| 2026-04-24 10:26 | 47.63633 | 7.75459 | 37230 ft | 431 kts | 126° |
| 2026-04-24 10:26 | 47.60098 | 7.82552 | 37227 ft | 431 kts | 126° |
| 2026-04-24 10:27 | 47.56534 | 7.89689 | 37225 ft | 431 kts | 126° |
| 2026-04-24 10:27 | 47.52961 | 7.96820 | 37222 ft | 431 kts | 127° |
| 2026-04-24 10:28 | 47.49390 | 8.03929 | 37220 ft | 430 kts | 127° |
| 2026-04-24 10:28 | 47.45817 | 8.11028 | 37221 ft | 430 kts | 127° |
| 2026-04-24 10:29 | 47.42238 | 8.18109 | 37219 ft | 430 kts | 127° |
| 2026-04-24 10:29 | 47.38660 | 8.25181 | 37218 ft | 430 kts | 127° |
| 2026-04-24 10:30 | 47.35080 | 8.32230 | 37223 ft | 430 kts | 126° |
| 2026-04-24 10:30 | 47.31499 | 8.39286 | 37223 ft | 430 kts | 126° |
| 2026-04-24 10:31 | 47.27905 | 8.46328 | 37228 ft | 430 kts | 126° |
| 2026-04-24 10:31 | 47.24315 | 8.53369 | 37228 ft | 430 kts | 126° |
| 2026-04-24 10:32 | 47.20801 | 8.60484 | 37230 ft | 430 kts | 125° |
| 2026-04-24 10:32 | 47.17312 | 8.67615 | 37224 ft | 429 kts | 125° |
| 2026-04-24 10:33 | 47.13797 | 8.74716 | 37217 ft | 430 kts | 125° |
| 2026-04-24 10:33 | 47.10264 | 8.81809 | 37199 ft | 430 kts | 125° |
| 2026-04-24 10:34 | 47.06723 | 8.88897 | 37196 ft | 431 kts | 125° |
| 2026-04-24 10:34 | 47.03182 | 8.95988 | 37201 ft | 431 kts | 125° |
| 2026-04-24 10:35 | 46.99633 | 9.03070 | 37203 ft | 431 kts | 125° |
| 2026-04-24 10:35 | 46.96093 | 9.10088 | 37188 ft | 431 kts | 125° |
| 2026-04-24 10:36 | 46.92528 | 9.17158 | 37185 ft | 432 kts | 125° |
| 2026-04-24 10:36 | 46.88963 | 9.24227 | 37186 ft | 432 kts | 125° |
| 2026-04-24 10:37 | 46.85393 | 9.31286 | 37189 ft | 432 kts | 125° |
| 2026-04-24 10:37 | 46.81817 | 9.38332 | 37191 ft | 432 kts | 125° |
| 2026-04-24 10:38 | 46.78220 | 9.45375 | 37198 ft | 432 kts | 125° |
| 2026-04-24 10:38 | 46.75234 | 9.51218 | 37197 ft | 432 kts | 125° |
| 2026-04-24 10:39 | 46.71637 | 9.58251 | 37188 ft | 432 kts | 125° |
| 2026-04-24 10:39 | 46.68029 | 9.65274 | 37201 ft | 433 kts | 125° |
| 2026-04-24 10:40 | 46.64415 | 9.72303 | 37203 ft | 434 kts | 125° |
| 2026-04-24 10:40 | 46.60794 | 9.79331 | 37206 ft | 434 kts | 124° |
| 2026-04-24 10:41 | 46.57170 | 9.86346 | 37204 ft | 434 kts | 124° |
| 2026-04-24 10:41 | 46.53540 | 9.93357 | 37201 ft | 434 kts | 124° |
| 2026-04-24 10:42 | 46.49907 | 10.00340 | 37202 ft | 434 kts | 125° |
| 2026-04-24 10:42 | 46.46220 | 10.07276 | 37202 ft | 434 kts | 127° |
| 2026-04-24 10:43 | 46.42336 | 10.13995 | 37207 ft | 435 kts | 128° |
| 2026-04-24 10:43 | 46.38385 | 10.20630 | 37199 ft | 435 kts | 128° |
| 2026-04-24 10:44 | 46.34454 | 10.27284 | 37182 ft | 435 kts | 127° |
| 2026-04-24 10:44 | 46.30549 | 10.33954 | 37180 ft | 435 kts | 127° |
| 2026-04-24 10:45 | 46.26643 | 10.40633 | 37175 ft | 435 kts | 127° |
| 2026-04-24 10:45 | 46.22726 | 10.47307 | 37178 ft | 435 kts | 127° |
| 2026-04-24 10:46 | 46.18830 | 10.53928 | 37162 ft | 435 kts | 127° |
| 2026-04-24 10:46 | 46.14903 | 10.60582 | 37162 ft | 436 kts | 127° |
| 2026-04-24 10:47 | 46.10966 | 10.67225 | 37162 ft | 436 kts | 127° |
| 2026-04-24 10:47 | 46.07023 | 10.73858 | 37145 ft | 435 kts | 127° |
| 2026-04-24 10:48 | 46.03083 | 10.80475 | 37148 ft | 436 kts | 127° |
| 2026-04-24 10:48 | 45.99125 | 10.87107 | 37133 ft | 437 kts | 127° |
| 2026-04-24 10:49 | 45.95166 | 10.93730 | 37124 ft | 437 kts | 127° |
| 2026-04-24 10:49 | 45.91200 | 11.00343 | 37128 ft | 437 kts | 127° |
| 2026-04-24 10:50 | 45.87235 | 11.06945 | 37122 ft | 437 kts | 127° |
| 2026-04-24 10:50 | 45.83261 | 11.13546 | 37131 ft | 437 kts | 127° |
| 2026-04-24 10:51 | 45.79277 | 11.20150 | 37136 ft | 437 kts | 127° |
| 2026-04-24 10:51 | 45.75294 | 11.26736 | 37126 ft | 437 kts | 127° |
| 2026-04-24 10:52 | 45.71317 | 11.33301 | 37122 ft | 437 kts | 127° |
| 2026-04-24 10:52 | 45.67319 | 11.39865 | 37128 ft | 437 kts | 127° |
| 2026-04-24 10:53 | 45.63329 | 11.46407 | 37127 ft | 437 kts | 127° |
| 2026-04-24 10:53 | 45.59325 | 11.52954 | 37132 ft | 437 kts | 127° |
| 2026-04-24 10:54 | 45.55328 | 11.59491 | 37136 ft | 437 kts | 127° |
| 2026-04-24 10:54 | 45.51351 | 11.65968 | 37145 ft | 437 kts | 127° |
| 2026-04-24 10:55 | 45.47343 | 11.72477 | 37163 ft | 437 kts | 127° |
| 2026-04-24 10:55 | 45.43333 | 11.78994 | 37148 ft | 438 kts | 127° |
| 2026-04-24 10:56 | 45.39304 | 11.85518 | 37135 ft | 439 kts | 127° |
| 2026-04-24 10:56 | 45.35257 | 11.92041 | 37134 ft | 440 kts | 127° |
| 2026-04-24 10:57 | 45.31204 | 11.98568 | 37136 ft | 440 kts | 127° |
| 2026-04-24 10:57 | 45.27150 | 12.05080 | 37150 ft | 440 kts | 127° |
| 2026-04-24 10:58 | 45.23083 | 12.11590 | 37138 ft | 441 kts | 127° |
| 2026-04-24 10:58 | 45.19011 | 12.18095 | 37132 ft | 441 kts | 127° |
| 2026-04-24 10:59 | 45.14939 | 12.24598 | 37131 ft | 441 kts | 127° |
| 2026-04-24 10:59 | 45.10863 | 12.31093 | 37129 ft | 441 kts | 127° |
| 2026-04-24 11:00 | 45.06779 | 12.37574 | 37149 ft | 441 kts | 127° |
| 2026-04-24 11:00 | 45.02690 | 12.44048 | 37142 ft | 441 kts | 127° |
| 2026-04-24 11:01 | 44.98599 | 12.50519 | 37145 ft | 441 kts | 127° |
| 2026-04-24 11:01 | 44.94525 | 12.56946 | 37142 ft | 442 kts | 127° |
| 2026-04-24 11:02 | 44.90416 | 12.63394 | 37143 ft | 442 kts | 127° |
| 2026-04-24 11:02 | 44.86306 | 12.69838 | 37166 ft | 442 kts | 127° |
| 2026-04-24 11:03 | 44.82196 | 12.76290 | 37157 ft | 442 kts | 127° |
| 2026-04-24 11:03 | 44.78080 | 12.82729 | 37154 ft | 442 kts | 127° |
| 2026-04-24 11:04 | 44.73984 | 12.89111 | 37160 ft | 442 kts | 127° |
| 2026-04-24 11:04 | 44.69860 | 12.95517 | 37157 ft | 442 kts | 127° |
| 2026-04-24 11:05 | 44.65733 | 13.01919 | 37166 ft | 442 kts | 127° |
| 2026-04-24 11:05 | 44.61602 | 13.08315 | 37165 ft | 442 kts | 127° |
| 2026-04-24 11:06 | 44.57467 | 13.14705 | 37161 ft | 442 kts | 127° |
| 2026-04-24 11:06 | 44.53329 | 13.21089 | 37159 ft | 442 kts | 127° |
| 2026-04-24 11:07 | 44.47109 | 13.30647 | 37170 ft | 443 kts | 127° |
| 2026-04-24 11:07 | 44.42953 | 13.37006 | 37160 ft | 443 kts | 128° |
| 2026-04-24 11:08 | 44.38796 | 13.43361 | 37162 ft | 443 kts | 128° |
| 2026-04-24 11:08 | 44.34636 | 13.49709 | 37159 ft | 443 kts | 128° |
| 2026-04-24 11:09 | 44.30471 | 13.56048 | 37175 ft | 443 kts | 128° |
| 2026-04-24 11:09 | 44.26324 | 13.62332 | 37166 ft | 443 kts | 128° |
| 2026-04-24 11:10 | 44.22151 | 13.68657 | 37169 ft | 443 kts | 128° |
| 2026-04-24 11:10 | 44.18104 | 13.75108 | 37166 ft | 441 kts | 125° |
| 2026-04-24 11:11 | 44.14198 | 13.81685 | 37174 ft | 441 kts | 124° |
| 2026-04-24 11:11 | 44.10279 | 13.88258 | 37181 ft | 441 kts | 125° |
| 2026-04-24 11:12 | 44.06311 | 13.94777 | 37176 ft | 441 kts | 126° |
| 2026-04-24 11:12 | 44.02324 | 14.01271 | 37172 ft | 441 kts | 126° |
| 2026-04-24 11:13 | 43.98338 | 14.07759 | 37169 ft | 441 kts | 126° |
| 2026-04-24 11:13 | 43.94357 | 14.14247 | 37171 ft | 441 kts | 126° |
| 2026-04-24 11:14 | 43.90377 | 14.20731 | 37173 ft | 441 kts | 126° |
| 2026-04-24 11:14 | 43.86387 | 14.27191 | 37186 ft | 442 kts | 126° |
| 2026-04-24 11:15 | 43.82391 | 14.33651 | 37179 ft | 441 kts | 126° |
| 2026-04-24 11:15 | 43.78397 | 14.40109 | 37172 ft | 441 kts | 126° |
| 2026-04-24 11:16 | 43.74399 | 14.46557 | 37168 ft | 441 kts | 126° |
| 2026-04-24 11:16 | 43.70415 | 14.52957 | 37167 ft | 441 kts | 126° |
| 2026-04-24 11:17 | 43.66401 | 14.59380 | 37175 ft | 442 kts | 126° |
| 2026-04-24 11:17 | 43.62383 | 14.65802 | 37168 ft | 442 kts | 126° |
| 2026-04-24 11:18 | 43.58364 | 14.72223 | 37166 ft | 442 kts | 126° |
| 2026-04-24 11:18 | 43.54340 | 14.78638 | 37166 ft | 442 kts | 126° |
| 2026-04-24 11:19 | 43.50307 | 14.85042 | 37164 ft | 442 kts | 126° |
| 2026-04-24 11:19 | 43.46263 | 14.91442 | 37165 ft | 442 kts | 126° |
| 2026-04-24 11:20 | 43.42225 | 14.97833 | 37182 ft | 442 kts | 127° |
| 2026-04-24 11:20 | 43.38184 | 15.04225 | 37172 ft | 443 kts | 127° |
| 2026-04-24 11:21 | 43.34128 | 15.10610 | 37156 ft | 443 kts | 127° |
| 2026-04-24 11:21 | 43.30065 | 15.16991 | 37157 ft | 444 kts | 127° |
| 2026-04-24 11:22 | 43.26024 | 15.23325 | 37150 ft | 444 kts | 127° |
| 2026-04-24 11:22 | 43.21927 | 15.29741 | 37171 ft | 444 kts | 127° |
| 2026-04-24 11:23 | 43.17862 | 15.36100 | 37172 ft | 444 kts | 127° |
| 2026-04-24 11:23 | 43.13809 | 15.42414 | 37153 ft | 444 kts | 127° |
| 2026-04-24 11:24 | 43.09722 | 15.48767 | 37150 ft | 445 kts | 127° |
| 2026-04-24 11:24 | 43.05631 | 15.55120 | 37151 ft | 445 kts | 127° |
| 2026-04-24 11:25 | 43.01531 | 15.61465 | 37152 ft | 445 kts | 127° |
| 2026-04-24 11:25 | 42.97426 | 15.67801 | 37166 ft | 445 kts | 127° |
| 2026-04-24 11:26 | 42.94018 | 15.73058 | 37162 ft | 445 kts | 127° |
| 2026-04-24 11:26 | 42.89907 | 15.79377 | 37157 ft | 445 kts | 127° |
| 2026-04-24 11:27 | 42.85788 | 15.85693 | 37154 ft | 446 kts | 127° |
| 2026-04-24 11:27 | 42.81668 | 15.92010 | 37151 ft | 446 kts | 127° |
| 2026-04-24 11:28 | 42.77540 | 15.98319 | 37145 ft | 446 kts | 127° |
| 2026-04-24 11:28 | 42.73402 | 16.04615 | 37154 ft | 446 kts | 128° |
| 2026-04-24 11:29 | 42.69259 | 16.10914 | 37147 ft | 446 kts | 128° |
| 2026-04-24 11:29 | 42.65126 | 16.17197 | 37147 ft | 446 kts | 128° |
| 2026-04-24 11:30 | 42.60977 | 16.23481 | 37135 ft | 447 kts | 128° |
| 2026-04-24 11:30 | 42.56825 | 16.29762 | 37138 ft | 447 kts | 128° |
| 2026-04-24 11:31 | 42.52668 | 16.36040 | 37153 ft | 447 kts | 128° |
| 2026-04-24 11:31 | 42.48501 | 16.42319 | 37145 ft | 447 kts | 128° |
| 2026-04-24 11:32 | 42.44332 | 16.48582 | 37144 ft | 448 kts | 128° |
| 2026-04-24 11:32 | 42.40153 | 16.54823 | 37134 ft | 448 kts | 128° |
| 2026-04-24 11:33 | 42.35994 | 16.61043 | 37127 ft | 448 kts | 128° |
| 2026-04-24 11:33 | 42.31809 | 16.67290 | 37122 ft | 449 kts | 128° |
| 2026-04-24 11:34 | 42.27611 | 16.73549 | 37135 ft | 449 kts | 128° |
| 2026-04-24 11:34 | 42.23407 | 16.79792 | 37128 ft | 449 kts | 128° |
| 2026-04-24 11:35 | 42.19201 | 16.86032 | 37128 ft | 449 kts | 128° |
| 2026-04-24 11:35 | 42.14994 | 16.92270 | 37120 ft | 450 kts | 128° |
| 2026-04-24 11:36 | 42.10776 | 16.98497 | 37119 ft | 450 kts | 129° |
| 2026-04-24 11:36 | 42.06547 | 17.04710 | 37121 ft | 450 kts | 129° |
| 2026-04-24 11:37 | 42.02316 | 17.10922 | 37128 ft | 450 kts | 128° |
| 2026-04-24 11:37 | 41.98086 | 17.17131 | 37124 ft | 450 kts | 128° |
| 2026-04-24 11:38 | 41.93855 | 17.23324 | 37131 ft | 449 kts | 128° |
| 2026-04-24 11:38 | 41.89809 | 17.29576 | 37133 ft | 444 kts | 125° |
| 2026-04-24 11:39 | 41.86029 | 17.36112 | 37126 ft | 442 kts | 123° |
| 2026-04-24 11:39 | 41.82274 | 17.42644 | 37143 ft | 442 kts | 124° |
| 2026-04-24 11:40 | 41.78455 | 17.49100 | 37128 ft | 442 kts | 125° |
| 2026-04-24 11:40 | 41.74605 | 17.55513 | 37124 ft | 441 kts | 125° |
| 2026-04-24 11:41 | 41.70756 | 17.61917 | 37117 ft | 441 kts | 125° |
| 2026-04-24 11:41 | 41.66911 | 17.68317 | 37111 ft | 441 kts | 125° |
| 2026-04-24 11:42 | 41.63072 | 17.74717 | 37129 ft | 441 kts | 125° |
| 2026-04-24 11:42 | 41.59226 | 17.81120 | 37112 ft | 441 kts | 125° |
| 2026-04-24 11:43 | 41.55397 | 17.87463 | 37109 ft | 442 kts | 125° |
| 2026-04-24 11:43 | 41.51537 | 17.93841 | 37105 ft | 442 kts | 125° |
| 2026-04-24 11:44 | 41.47672 | 18.00214 | 37108 ft | 442 kts | 125° |
| 2026-04-24 11:44 | 41.43805 | 18.06583 | 37104 ft | 442 kts | 125° |
| 2026-04-24 11:45 | 41.39940 | 18.12950 | 37106 ft | 442 kts | 125° |
| 2026-04-24 11:45 | 41.36065 | 18.19305 | 37101 ft | 442 kts | 126° |
| 2026-04-24 11:46 | 41.32179 | 18.25647 | 37100 ft | 442 kts | 126° |
| 2026-04-24 11:46 | 41.28299 | 18.31990 | 37102 ft | 442 kts | 126° |
| 2026-04-24 11:47 | 41.24408 | 18.38318 | 37101 ft | 442 kts | 126° |
| 2026-04-24 11:47 | 41.20508 | 18.44644 | 37116 ft | 442 kts | 126° |
| 2026-04-24 11:48 | 41.16616 | 18.50966 | 37111 ft | 442 kts | 126° |
| 2026-04-24 11:48 | 41.12726 | 18.57285 | 37106 ft | 442 kts | 126° |
| 2026-04-24 11:49 | 41.08855 | 18.63555 | 37109 ft | 442 kts | 126° |
| 2026-04-24 11:49 | 41.04947 | 18.69852 | 37105 ft | 442 kts | 126° |
| 2026-04-24 11:50 | 41.01028 | 18.76142 | 37096 ft | 443 kts | 126° |
| 2026-04-24 11:50 | 40.97112 | 18.82435 | 37109 ft | 443 kts | 126° |
| 2026-04-24 11:51 | 40.93186 | 18.88723 | 37103 ft | 443 kts | 126° |
| 2026-04-24 11:51 | 40.89277 | 18.95027 | 37096 ft | 442 kts | 122° |
| 2026-04-24 11:52 | 40.85938 | 19.01807 | 37092 ft | 440 kts | 119° |
| 2026-04-24 11:52 | 40.82624 | 19.08606 | 37090 ft | 440 kts | 119° |
| 2026-04-24 11:53 | 40.79301 | 19.15398 | 37091 ft | 440 kts | 119° |
| 2026-04-24 11:53 | 40.75976 | 19.22199 | 37089 ft | 441 kts | 120° |
| 2026-04-24 11:54 | 40.72649 | 19.28982 | 37074 ft | 441 kts | 120° |
| 2026-04-24 11:54 | 40.69315 | 19.35782 | 37073 ft | 441 kts | 120° |
| 2026-04-24 11:55 | 40.65982 | 19.42562 | 37064 ft | 441 kts | 120° |
| 2026-04-24 11:55 | 40.62648 | 19.49299 | 37076 ft | 442 kts | 120° |
| 2026-04-24 11:56 | 40.59291 | 19.56070 | 37055 ft | 442 kts | 120° |
| 2026-04-24 11:56 | 40.55935 | 19.62841 | 37052 ft | 442 kts | 120° |
| 2026-04-24 11:57 | 40.52580 | 19.69608 | 37041 ft | 442 kts | 120° |
| 2026-04-24 11:57 | 40.49224 | 19.76371 | 37040 ft | 442 kts | 120° |
| 2026-04-24 11:58 | 40.45853 | 19.83121 | 37048 ft | 442 kts | 120° |
| 2026-04-24 11:58 | 40.42479 | 19.89871 | 37028 ft | 442 kts | 120° |
| 2026-04-24 11:59 | 40.39090 | 19.96615 | 37021 ft | 443 kts | 120° |
| 2026-04-24 11:59 | 40.35697 | 20.03360 | 37017 ft | 443 kts | 120° |
| 2026-04-24 12:00 | 40.32313 | 20.10104 | 37013 ft | 443 kts | 121° |
| 2026-04-24 12:00 | 40.28918 | 20.16846 | 37026 ft | 443 kts | 120° |
| 2026-04-24 12:01 | 40.25515 | 20.23578 | 37019 ft | 443 kts | 121° |
| 2026-04-24 12:01 | 40.22109 | 20.30302 | 37017 ft | 443 kts | 121° |
| 2026-04-24 12:02 | 40.18719 | 20.36970 | 37012 ft | 443 kts | 121° |
| 2026-04-24 12:02 | 40.15307 | 20.43676 | 37011 ft | 443 kts | 121° |
| 2026-04-24 12:03 | 40.11888 | 20.50383 | 37021 ft | 443 kts | 121° |
| 2026-04-24 12:03 | 40.08264 | 20.56904 | 37009 ft | 447 kts | 131° |
| 2026-04-24 12:04 | 40.03319 | 20.61836 | 37007 ft | 453 kts | 151° |
| 2026-04-24 12:04 | 39.97591 | 20.65322 | 36998 ft | 454 kts | 153° |
| 2026-04-24 12:05 | 39.91867 | 20.68825 | 37000 ft | 455 kts | 153° |
| 2026-04-24 12:05 | 39.86143 | 20.72328 | 37006 ft | 454 kts | 153° |
| 2026-04-24 12:06 | 39.80406 | 20.75813 | 37010 ft | 455 kts | 153° |
| 2026-04-24 12:06 | 39.74779 | 20.79539 | 36999 ft | 452 kts | 142° |
| 2026-04-24 12:07 | 39.70317 | 20.85140 | 37016 ft | 444 kts | 122° |
| 2026-04-24 12:07 | 39.67621 | 20.92181 | 36998 ft | 437 kts | 104° |
| 2026-04-24 12:08 | 39.65863 | 20.99713 | 36659 ft | 436 kts | 104° |
| 2026-04-24 12:08 | 39.64975 | 21.03484 | 35998 ft | 436 kts | 104° |
| 2026-04-24 12:08 | 39.64086 | 21.07230 | 35515 ft | 432 kts | 104° |
| 2026-04-24 12:09 | 39.63200 | 21.10940 | 35059 ft | 428 kts | 103° |
| 2026-04-24 12:09 | 39.62323 | 21.14612 | 34611 ft | 424 kts | 103° |
| 2026-04-24 12:09 | 39.61454 | 21.18252 | 34188 ft | 420 kts | 103° |
| 2026-04-24 12:09 | 39.60591 | 21.21857 | 33737 ft | 417 kts | 103° |
| 2026-04-24 12:10 | 39.59731 | 21.25438 | 33254 ft | 413 kts | 103° |
| 2026-04-24 12:10 | 39.58881 | 21.28974 | 32775 ft | 410 kts | 103° |
| 2026-04-24 12:10 | 39.58035 | 21.32496 | 32286 ft | 407 kts | 103° |
| 2026-04-24 12:11 | 39.56368 | 21.39448 | 31343 ft | 401 kts | 103° |
| 2026-04-24 12:11 | 39.55543 | 21.42876 | 30874 ft | 398 kts | 103° |
| 2026-04-24 12:11 | 39.54718 | 21.46285 | 30409 ft | 395 kts | 103° |
| 2026-04-24 12:11 | 39.53895 | 21.49671 | 29943 ft | 393 kts | 103° |
| 2026-04-24 12:12 | 39.53079 | 21.53034 | 29438 ft | 390 kts | 103° |
| 2026-04-24 12:12 | 39.52269 | 21.56373 | 28947 ft | 387 kts | 103° |
| 2026-04-24 12:12 | 39.51466 | 21.59685 | 28460 ft | 384 kts | 103° |
| 2026-04-24 12:12 | 39.50667 | 21.62970 | 27984 ft | 381 kts | 103° |
| 2026-04-24 12:13 | 39.49885 | 21.66185 | 27521 ft | 378 kts | 103° |
| 2026-04-24 12:13 | 39.49100 | 21.69418 | 27058 ft | 375 kts | 103° |
| 2026-04-24 12:13 | 39.48322 | 21.72628 | 26602 ft | 372 kts | 103° |
| 2026-04-24 12:13 | 39.47547 | 21.75811 | 26161 ft | 369 kts | 103° |
| 2026-04-24 12:14 | 39.46777 | 21.78962 | 25729 ft | 367 kts | 103° |
| 2026-04-24 12:14 | 39.46010 | 21.82095 | 25332 ft | 364 kts | 104° |
| 2026-04-24 12:14 | 39.45505 | 21.84157 | 25066 ft | 361 kts | 104° |
| 2026-04-24 12:14 | 39.44745 | 21.87249 | 24662 ft | 358 kts | 104° |
| 2026-04-24 12:15 | 39.43993 | 21.90305 | 24247 ft | 355 kts | 104° |
| 2026-04-24 12:15 | 39.43243 | 21.93346 | 23839 ft | 353 kts | 104° |
| 2026-04-24 12:15 | 39.42501 | 21.96354 | 23407 ft | 351 kts | 104° |
| 2026-04-24 12:15 | 39.41762 | 21.99355 | 22946 ft | 348 kts | 104° |
| 2026-04-24 12:16 | 39.41028 | 22.02327 | 22507 ft | 346 kts | 104° |
| 2026-04-24 12:16 | 39.40299 | 22.05277 | 22088 ft | 343 kts | 104° |
| 2026-04-24 12:16 | 39.39582 | 22.08179 | 21882 ft | 334 kts | 104° |
| 2026-04-24 12:16 | 39.38882 | 22.10996 | 21744 ft | 324 kts | 104° |
| 2026-04-24 12:17 | 39.38199 | 22.13739 | 21497 ft | 318 kts | 104° |
| 2026-04-24 12:17 | 39.37526 | 22.16447 | 21162 ft | 315 kts | 104° |
| 2026-04-24 12:17 | 39.36857 | 22.19133 | 20807 ft | 313 kts | 104° |
| 2026-04-24 12:17 | 39.36190 | 22.21802 | 20465 ft | 311 kts | 104° |
| 2026-04-24 12:18 | 39.35527 | 22.24454 | 20127 ft | 309 kts | 104° |
| 2026-04-24 12:18 | 39.34868 | 22.27092 | 20007 ft | 308 kts | 104° |
| 2026-04-24 12:18 | 39.34210 | 22.29733 | 20022 ft | 309 kts | 104° |
| 2026-04-24 12:18 | 39.33548 | 22.32379 | 20023 ft | 310 kts | 104° |
| 2026-04-24 12:19 | 39.32884 | 22.35026 | 20018 ft | 310 kts | 104° |
| 2026-04-24 12:19 | 39.32221 | 22.37671 | 20020 ft | 310 kts | 104° |
| 2026-04-24 12:19 | 39.31555 | 22.40317 | 20024 ft | 310 kts | 104° |
| 2026-04-24 12:19 | 39.30892 | 22.42955 | 19886 ft | 308 kts | 104° |
| 2026-04-24 12:20 | 39.30235 | 22.45578 | 19548 ft | 306 kts | 104° |
| 2026-04-24 12:20 | 39.29581 | 22.48187 | 19235 ft | 305 kts | 104° |
| 2026-04-24 12:20 | 39.28931 | 22.50775 | 18922 ft | 303 kts | 104° |
| 2026-04-24 12:20 | 39.28281 | 22.53353 | 18595 ft | 301 kts | 104° |
| 2026-04-24 12:21 | 39.27640 | 22.55884 | 18295 ft | 300 kts | 104° |
| 2026-04-24 12:21 | 39.26993 | 22.58436 | 17953 ft | 298 kts | 104° |
| 2026-04-24 12:21 | 39.26351 | 22.60966 | 17703 ft | 294 kts | 104° |
| 2026-04-24 12:21 | 39.25720 | 22.63454 | 17441 ft | 290 kts | 104° |
| 2026-04-24 12:22 | 39.25097 | 22.65918 | 17145 ft | 288 kts | 104° |
| 2026-04-24 12:22 | 39.24477 | 22.68365 | 16850 ft | 286 kts | 104° |
| 2026-04-24 12:22 | 39.23856 | 22.70798 | 16553 ft | 285 kts | 104° |
| 2026-04-24 12:22 | 39.23239 | 22.73217 | 16256 ft | 283 kts | 104° |
| 2026-04-24 12:23 | 39.22626 | 22.75624 | 15976 ft | 282 kts | 104° |
| 2026-04-24 12:23 | 39.22018 | 22.78019 | 15696 ft | 280 kts | 104° |
| 2026-04-24 12:23 | 39.21620 | 22.80451 | 15424 ft | 275 kts | 92° |
| 2026-04-24 12:23 | 39.21516 | 22.82896 | 15143 ft | 273 kts | 90° |
| 2026-04-24 12:24 | 39.21421 | 22.85342 | 14863 ft | 272 kts | 90° |
| 2026-04-24 12:24 | 39.21320 | 22.87771 | 14594 ft | 271 kts | 90° |
| 2026-04-24 12:24 | 39.21218 | 22.90187 | 14316 ft | 269 kts | 90° |
| 2026-04-24 12:24 | 39.21118 | 22.92592 | 14047 ft | 268 kts | 90° |
| 2026-04-24 12:25 | 39.21019 | 22.94991 | 13784 ft | 267 kts | 91° |
| 2026-04-24 12:25 | 39.20919 | 22.97368 | 13471 ft | 266 kts | 91° |
| 2026-04-24 12:25 | 39.20817 | 22.99746 | 13143 ft | 265 kts | 91° |
| 2026-04-24 12:25 | 39.20715 | 23.02119 | 12844 ft | 264 kts | 91° |
| 2026-04-24 12:26 | 39.20618 | 23.04423 | 12703 ft | 257 kts | 91° |
| 2026-04-24 12:26 | 39.20523 | 23.06695 | 12519 ft | 251 kts | 91° |
| 2026-04-24 12:26 | 39.20429 | 23.08939 | 12236 ft | 250 kts | 91° |
| 2026-04-24 12:26 | 39.20333 | 23.11177 | 12001 ft | 251 kts | 91° |
| 2026-04-24 12:27 | 39.20236 | 23.13421 | 11710 ft | 251 kts | 91° |
| 2026-04-24 12:27 | 39.20138 | 23.15665 | 11400 ft | 251 kts | 91° |
| 2026-04-24 12:27 | 39.20040 | 23.17904 | 11123 ft | 250 kts | 91° |
| 2026-04-24 12:27 | 39.19943 | 23.20136 | 10828 ft | 249 kts | 91° |
| 2026-04-24 12:28 | 39.19848 | 23.22360 | 10515 ft | 247 kts | 91° |
| 2026-04-24 12:28 | 39.19753 | 23.24567 | 10025 ft | 247 kts | 91° |
| 2026-04-24 12:28 | 39.19656 | 23.26785 | 9491 ft | 247 kts | 91° |
| 2026-04-24 12:28 | 39.19557 | 23.28987 | 8962 ft | 246 kts | 91° |
| 2026-04-24 12:29 | 39.19456 | 23.31189 | 8452 ft | 245 kts | 91° |
| 2026-04-24 12:29 | 39.19356 | 23.33370 | 7995 ft | 241 kts | 91° |
| 2026-04-24 12:29 | 39.19260 | 23.35459 | 7814 ft | 228 kts | 91° |
| 2026-04-24 12:29 | 39.19166 | 23.37484 | 7462 ft | 225 kts | 91° |
| 2026-04-24 12:30 | 39.19075 | 23.39493 | 7085 ft | 224 kts | 91° |
| 2026-04-24 12:30 | 39.18984 | 23.41494 | 6710 ft | 223 kts | 91° |
| 2026-04-24 12:30 | 39.18894 | 23.43486 | 6327 ft | 223 kts | 90° |
| 2026-04-24 12:30 | 39.18802 | 23.45476 | 5954 ft | 222 kts | 92° |
| 2026-04-24 12:31 | 39.18713 | 23.47456 | 5711 ft | 218 kts | 91° |
| 2026-04-24 12:31 | 39.18625 | 23.49416 | 5604 ft | 219 kts | 90° |
| 2026-04-24 12:31 | 39.18536 | 23.51374 | 5374 ft | 219 kts | 92° |
| 2026-04-24 12:31 | 39.18444 | 23.53334 | 5095 ft | 220 kts | 92° |
| 2026-04-24 12:32 | 39.18353 | 23.55293 | 4851 ft | 218 kts | 91° |
| 2026-04-24 12:32 | 39.18262 | 23.57246 | 4580 ft | 218 kts | 92° |
| 2026-04-24 12:32 | 39.18172 | 23.59188 | 4314 ft | 218 kts | 91° |
| 2026-04-24 12:32 | 39.18080 | 23.61144 | 4062 ft | 219 kts | 91° |
| 2026-04-24 12:33 | 39.17712 | 23.63033 | 3994 ft | 219 kts | 121° |
| 2026-04-24 12:33 | 39.16609 | 23.64326 | 4001 ft | 221 kts | 156° |
| 2026-04-24 12:33 | 39.15168 | 23.65041 | 4013 ft | 223 kts | 158° |
| 2026-04-24 12:33 | 39.13810 | 23.65982 | 4010 ft | 222 kts | 136° |
| 2026-04-24 12:34 | 39.13009 | 23.67633 | 4009 ft | 217 kts | 102° |
| 2026-04-24 12:34 | 39.12984 | 23.69554 | 4008 ft | 216 kts | 72° |
| 2026-04-24 12:34 | 39.13706 | 23.71191 | 4006 ft | 210 kts | 40° |
| 2026-04-24 12:34 | 39.14938 | 23.72116 | 4010 ft | 205 kts | 12° |
| 2026-04-24 12:35 | 39.16337 | 23.72135 | 4009 ft | 203 kts | 343° |
| 2026-04-24 12:35 | 39.17564 | 23.71259 | 4011 ft | 204 kts | 315° |
| 2026-04-24 12:35 | 39.18292 | 23.69720 | 4008 ft | 202 kts | 287° |
| 2026-04-24 12:35 | 39.18394 | 23.67961 | 4002 ft | 192 kts | 269° |
| 2026-04-24 12:36 | 39.18322 | 23.66258 | 4003 ft | 189 kts | 268° |
| 2026-04-24 12:36 | 39.18235 | 23.64566 | 4008 ft | 189 kts | 268° |
| 2026-04-24 12:36 | 39.18078 | 23.62893 | 4013 ft | 189 kts | 254° |
| 2026-04-24 12:36 | 39.17442 | 23.61420 | 3892 ft | 191 kts | 229° |
| 2026-04-24 12:37 | 39.16322 | 23.60492 | 3699 ft | 196 kts | 202° |
| 2026-04-24 12:37 | 39.15051 | 23.59868 | 3491 ft | 194 kts | 208° |
| 2026-04-24 12:37 | 39.13860 | 23.59083 | 3160 ft | 192 kts | 211° |
| 2026-04-24 12:37 | 39.12684 | 23.58257 | 2761 ft | 194 kts | 212° |
| 2026-04-24 12:38 | 39.11491 | 23.57421 | 2384 ft | 195 kts | 211° |
| 2026-04-24 12:38 | 39.10298 | 23.56601 | 2052 ft | 194 kts | 210° |
| 2026-04-24 12:38 | 39.09111 | 23.55799 | 2016 ft | 193 kts | 208° |
| 2026-04-24 12:39 | 39.05508 | 23.53406 | 2011 ft | 194 kts | 208° |
| 2026-04-24 12:39 | 39.04305 | 23.52616 | 2013 ft | 195 kts | 208° |
| 2026-04-24 12:39 | 39.03107 | 23.51824 | 1945 ft | 190 kts | 212° |
| 2026-04-24 12:40 | 39.02218 | 23.50632 | 1623 ft | 183 kts | 248° |
| 2026-04-24 12:40 | 39.01989 | 23.49089 | 1597 ft | 171 kts | 278° |
| 2026-04-24 12:40 | 39.02370 | 23.47707 | 1604 ft | 162 kts | 308° |
| 2026-04-24 12:40 | 39.03195 | 23.46780 | 1606 ft | 157 kts | 336° |
| 2026-04-24 12:41 | 39.04240 | 23.46475 | 1609 ft | 156 kts | 2° |
| 2026-04-24 12:41 | 39.05305 | 23.46722 | 1611 ft | 157 kts | 12° |
| 2026-04-24 12:41 | 39.06373 | 23.47032 | 1613 ft | 157 kts | 12° |
| 2026-04-24 12:41 | 39.07412 | 23.47334 | 1617 ft | 149 kts | 12° |
| 2026-04-24 12:42 | 39.08402 | 23.47621 | 1610 ft | 144 kts | 12° |
| 2026-04-24 12:42 | 39.09377 | 23.47797 | 1448 ft | 144 kts | 360° |
| 2026-04-24 12:42 | 39.10368 | 23.47716 | 1273 ft | 141 kts | 357° |
| 2026-04-24 12:42 | 39.11350 | 23.47675 | 1229 ft | 141 kts | 1° |
| 2026-04-24 12:43 | 39.12326 | 23.47812 | 1144 ft | 141 kts | 14° |
| 2026-04-24 12:43 | 39.13246 | 23.48290 | 855 ft | 144 kts | 23° |
| 2026-04-24 12:43 | 39.14163 | 23.48800 | 617 ft | 142 kts | 18° |
| 2026-04-24 12:43 | 39.15105 | 23.49193 | 464 ft | 143 kts | 18° |
| 2026-04-24 12:44 | 39.16056 | 23.49624 | 253 ft | 143 kts | 18° |
| 2026-04-24 12:44 | 39.16990 | 23.50048 | 66 ft | 142 kts | 19° |
| 2026-04-24 12:44 | 39.17819 | 23.50415 | 38 ft | 81 kts | 19° |
| 2026-04-24 12:44 | 39.18000 | 23.50492 | 44 ft | 3 kts | 320° |
| 2026-04-24 12:45 | 39.18000 | 23.50489 | 44 ft | 0 kts | 295° |
| 2026-04-24 12:45 | 39.17980 | 23.50475 | 44 ft | 1 kts | 169° |
| 2026-04-24 12:45 | 39.17958 | 23.50467 | 44 ft | 5 kts | 213° |
| 2026-04-24 12:45 | 39.17935 | 23.50412 | 42 ft | 8 kts | 251° |
| 2026-04-24 12:46 | 39.17917 | 23.50354 | 39 ft | 7 kts | 238° |
| 2026-04-24 12:46 | 39.17875 | 23.50320 | 40 ft | 7 kts | 196° |
| 2026-04-24 12:46 | 39.17838 | 23.50306 | 39 ft | 1 kts | 201° |
| 2026-04-24 12:47 | 39.17831 | 23.50301 | 39 ft | 2 kts | 209° |
| 2026-04-24 12:47 | 39.17823 | 23.50288 | 39 ft | 1 kts | 240° |
| 2026-04-24 12:47 | 39.17822 | 23.50277 | 38 ft | 3 kts | 264° |
| 2026-04-24 12:47 | 39.17826 | 23.50251 | 39 ft | 2 kts | 286° |
| 2026-04-24 12:48 | 39.17830 | 23.50235 | 39 ft | 1 kts | 288° |
| 2026-04-24 12:48 | 39.17832 | 23.50225 | 39 ft | 2 kts | 289° |
| 2026-04-24 12:48 | 39.17839 | 23.50201 | 39 ft | 0 kts | 289° |